Time;durP1;ratioP1;P1;durP2;ratioP2;P2;SDS_P1;SDS_P2;PMS_P1;PMS_P2;Temp;Humidity;BMP_temperature;BMP_pressure;BME280_temperature;BME280_humidity;BME280_pressure;Samples;Min_cycle;Max_cycle;Signal;HPM_P1;HPM_P2
2022/07/30 00:02:15;;;;;;;8.43;7.73;;;20.00;99.90;;;;;;4998788;28;20475;-85
2022/07/30 00:04:43;;;;;;;8.73;8.03;;;20.00;99.90;;;;;;4981027;28;20936;-85
2022/07/30 00:07:10;;;;;;;9.43;8.53;;;19.90;99.90;;;;;;4979016;28;20531;-85
2022/07/30 00:09:37;;;;;;;10.53;8.00;;;19.90;99.90;;;;;;4978316;28;20463;-84
2022/07/30 00:12:04;;;;;;;8.50;7.80;;;19.80;99.90;;;;;;4977461;28;20515;-85
2022/07/30 00:14:31;;;;;;;8.17;7.47;;;19.80;99.90;;;;;;4977852;28;20821;-85
2022/07/30 00:16:58;;;;;;;8.93;8.23;;;19.80;99.90;;;;;;4977325;28;20444;-85
2022/07/30 00:19:24;;;;;;;9.10;8.40;;;19.70;99.90;;;;;;4977039;28;20494;-85
2022/07/30 00:21:53;;;;;;;9.37;8.67;;;19.80;99.90;;;;;;4977508;28;20569;-85
2022/07/30 00:24:20;;;;;;;9.53;8.73;;;19.70;99.90;;;;;;4980207;28;20452;-85
2022/07/30 00:26:47;;;;;;;10.47;9.33;;;19.70;99.90;;;;;;4987586;28;20430;-84
2022/07/30 00:29:13;;;;;;;9.63;8.63;;;19.70;99.90;;;;;;4994309;28;20459;-84
2022/07/30 00:31:40;;;;;;;9.57;8.77;;;19.70;99.90;;;;;;4988983;28;20520;-84
2022/07/30 00:34:07;;;;;;;9.33;8.43;;;19.80;99.90;;;;;;4986567;28;20820;-84
2022/07/30 00:36:34;;;;;;;8.67;7.90;;;19.80;99.90;;;;;;4982606;28;20457;-84
2022/07/30 00:39:02;;;;;;;10.13;9.23;;;19.90;99.90;;;;;;4985081;28;20618;-84
2022/07/30 00:41:29;;;;;;;10.03;9.23;;;19.90;99.90;;;;;;4977949;28;21069;-84
2022/07/30 00:44:02;;;;;;;9.07;8.33;;;19.90;99.90;;;;;;4977184;28;20452;-84
2022/07/30 00:46:28;;;;;;;8.67;7.70;;;19.90;99.90;;;;;;4974838;28;20451;-84
2022/07/30 00:48:55;;;;;;;9.33;8.53;;;19.90;99.90;;;;;;4975795;28;20824;-85
2022/07/30 00:51:22;;;;;;;7.80;7.30;;;19.80;99.90;;;;;;4975379;28;20444;-84
2022/07/30 00:53:48;;;;;;;12.17;9.13;;;19.80;99.90;;;;;;4979771;28;20448;-84
2022/07/30 00:56:16;;;;;;;8.80;8.10;;;19.90;99.90;;;;;;4985677;28;20440;-87
2022/07/30 00:58:43;;;;;;;8.03;7.40;;;19.90;99.90;;;;;;4986258;28;20494;-85
2022/07/30 01:01:10;;;;;;;8.00;7.33;;;20.00;99.90;;;;;;4982155;28;20455;-84
2022/07/30 01:03:37;;;;;;;7.53;6.93;;;19.90;99.90;;;;;;4983740;28;20523;-85
2022/07/30 01:06:05;;;;;;;7.53;6.93;;;19.90;99.90;;;;;;4990418;28;20473;-85
2022/07/30 01:08:31;;;;;;;7.43;6.83;;;20.00;99.90;;;;;;4989960;28;20511;-85
2022/07/30 01:10:58;;;;;;;7.40;6.70;;;20.00;99.90;;;;;;4991475;28;20979;-86
2022/07/30 01:13:26;;;;;;;7.50;6.90;;;20.10;99.90;;;;;;4989222;28;20480;-86
2022/07/30 01:15:53;;;;;;;10.03;7.63;;;20.10;99.90;;;;;;4975272;28;20448;-86
2022/07/30 01:18:22;;;;;;;8.50;7.10;;;20.10;99.90;;;;;;4975795;28;20460;-86
2022/07/30 01:20:56;;;;;;;7.20;6.60;;;20.10;99.90;;;;;;4975936;28;20444;-86
2022/07/30 01:23:27;;;;;;;7.00;6.30;;;20.10;99.90;;;;;;4985846;28;20518;-86
2022/07/30 01:25:58;;;;;;;6.83;6.23;;;20.00;99.90;;;;;;4992439;28;20447;-86
2022/07/30 01:28:30;;;;;;;7.73;7.03;;;20.00;99.90;;;;;;4987528;28;20864;-86
2022/07/30 01:30:58;;;;;;;7.67;6.97;;;19.80;99.90;;;;;;4976545;28;20444;-84
2022/07/30 01:33:26;;;;;;;7.43;6.17;;;19.90;99.90;;;;;;4974067;28;20472;-86
2022/07/30 01:35:55;;;;;;;7.00;6.10;;;19.90;99.90;;;;;;4977210;28;20457;-86
2022/07/30 01:38:24;;;;;;;7.47;6.87;;;19.90;99.90;;;;;;4987955;28;20449;-86
2022/07/30 01:40:52;;;;;;;7.87;6.87;;;19.80;99.90;;;;;;4996671;28;20474;-84
2022/07/30 01:43:23;;;;;;;6.53;5.93;;;19.70;99.90;;;;;;4991268;28;20475;-84
2022/07/30 01:45:51;;;;;;;6.80;6.20;;;19.80;99.90;;;;;;4993551;28;20448;-84
2022/07/30 01:48:21;;;;;;;7.03;6.03;;;19.80;99.90;;;;;;4981499;28;20454;-85
2022/07/30 01:50:50;;;;;;;7.67;6.60;;;19.80;99.90;;;;;;4973494;28;20448;-85
2022/07/30 01:53:21;;;;;;;8.60;7.87;;;19.70;99.90;;;;;;4973888;28;20471;-85
2022/07/30 01:55:49;;;;;;;7.60;6.70;;;19.80;99.90;;;;;;4975355;28;20826;-85
2022/07/30 01:58:19;;;;;;;7.13;6.53;;;19.80;99.90;;;;;;4974243;28;20456;-85
2022/07/30 02:00:49;;;;;;;7.40;6.70;;;19.80;99.90;;;;;;4977166;28;20571;-85
2022/07/30 02:03:16;;;;;;;7.67;7.03;;;19.70;99.90;;;;;;4976507;28;20491;-84
2022/07/30 02:05:47;;;;;;;6.70;5.60;;;19.70;99.90;;;;;;4976570;28;20456;-85
2022/07/30 02:08:18;;;;;;;6.90;6.20;;;19.60;99.90;;;;;;4976738;28;20459;-85
2022/07/30 02:10:48;;;;;;;7.63;6.30;;;19.60;99.90;;;;;;4976308;28;20440;-85
2022/07/30 02:13:22;;;;;;;7.23;6.33;;;19.50;99.90;;;;;;4977084;28;20472;-85
2022/07/30 02:16:01;;;;;;;7.60;6.47;;;19.50;99.90;;;;;;4977897;28;20456;-85
2022/07/30 02:18:31;;;;;;;7.30;6.50;;;19.40;99.90;;;;;;4977719;28;20461;-84
2022/07/30 02:21:05;;;;;;;8.17;6.40;;;19.40;99.90;;;;;;4977365;28;20515;-85
2022/07/30 02:23:35;;;;;;;6.90;6.30;;;19.40;99.90;;;;;;4976419;28;20490;-85
2022/07/30 02:26:04;;;;;;;7.27;6.63;;;19.30;99.90;;;;;;4976893;28;20888;-85
2022/07/30 02:28:34;;;;;;;8.00;7.03;;;19.20;99.90;;;;;;4976947;28;20456;-84
2022/07/30 02:31:02;;;;;;;7.00;6.40;;;19.30;99.90;;;;;;4977732;28;20452;-85
2022/07/30 02:33:34;;;;;;;8.17;7.33;;;19.30;99.90;;;;;;4977258;28;20476;-85
2022/07/30 02:36:02;;;;;;;8.43;7.23;;;19.20;99.90;;;;;;4976661;28;20488;-85
2022/07/30 02:38:30;;;;;;;8.37;7.67;;;19.10;99.90;;;;;;4983190;28;20451;-84
2022/07/30 02:40:58;;;;;;;9.30;8.53;;;19.00;99.90;;;;;;4997979;28;20551;-84
2022/07/30 02:43:26;;;;;;;10.27;9.07;;;19.00;99.90;;;;;;4981690;28;20499;-85
2022/07/30 02:45:53;;;;;;;9.60;8.83;;;19.00;99.90;;;;;;4980467;28;20452;-85
2022/07/30 02:48:23;;;;;;;14.07;9.67;;;18.90;99.90;;;;;;4991179;28;20440;-85
2022/07/30 02:50:53;;;;;;;11.17;9.97;;;18.80;99.90;;;;;;4984597;28;20452;-85
2022/07/30 02:53:20;;;;;;;10.30;9.40;;;18.80;99.90;;;;;;4978959;28;20498;-85
2022/07/30 02:55:48;;;;;;;10.00;9.10;;;18.80;99.90;;;;;;4978271;28;20451;-85
2022/07/30 02:58:19;;;;;;;11.10;10.20;;;18.90;99.90;;;;;;4977785;28;20444;-85
2022/07/30 03:00:46;;;;;;;11.87;10.80;;;18.80;99.90;;;;;;4976020;28;20491;-85
2022/07/30 03:03:15;;;;;;;11.20;10.10;;;18.80;99.90;;;;;;4978806;28;20479;-85
2022/07/30 03:05:44;;;;;;;11.80;10.70;;;18.70;99.90;;;;;;4994608;28;20452;-85
2022/07/30 03:08:12;;;;;;;13.00;11.63;;;18.70;99.90;;;;;;4976541;28;20480;-85
2022/07/30 03:10:43;;;;;;;12.07;11.10;;;18.60;99.90;;;;;;4974822;28;20471;-85
2022/07/30 03:13:12;;;;;;;12.40;11.30;;;18.60;99.90;;;;;;4977023;28;20507;-85
2022/07/30 03:15:43;;;;;;;11.80;10.73;;;18.50;99.90;;;;;;4982502;28;20449;-85
2022/07/30 03:18:13;;;;;;;12.00;10.90;;;18.50;99.90;;;;;;4994642;28;20459;-85
2022/07/30 03:20:40;;;;;;;12.67;11.33;;;18.40;99.90;;;;;;4993347;28;20488;-84
2022/07/30 03:23:10;;;;;;;13.00;11.83;;;18.40;99.90;;;;;;5002183;23;20507;-82
2022/07/30 03:25:39;;;;;;;13.23;12.03;;;18.40;99.90;;;;;;4999862;28;20521;-82
2022/07/30 03:28:07;;;;;;;12.90;11.70;;;18.40;99.90;;;;;;5004425;28;20452;-82
2022/07/30 03:30:35;;;;;;;12.67;11.63;;;18.50;99.90;;;;;;4997101;28;20520;-82
2022/07/30 03:33:02;;;;;;;12.40;11.20;;;18.40;99.90;;;;;;4995082;28;20478;-82
2022/07/30 03:35:29;;;;;;;13.23;11.93;;;18.30;99.90;;;;;;4998072;28;20452;-82
2022/07/30 03:37:56;;;;;;;13.40;12.30;;;18.30;99.90;;;;;;5012049;28;20475;-82
2022/07/30 03:40:25;;;;;;;12.90;11.80;;;18.20;99.90;;;;;;4997260;28;20494;-83
2022/07/30 03:42:52;;;;;;;13.80;12.70;;;18.20;99.90;;;;;;4995975;28;20587;-82
2022/07/30 03:45:20;;;;;;;13.60;12.40;;;18.20;99.90;;;;;;5002479;28;20987;-82
2022/07/30 03:47:48;;;;;;;13.00;11.80;;;18.20;99.90;;;;;;4998905;28;20448;-82
2022/07/30 03:50:15;;;;;;;12.30;11.30;;;18.10;99.90;;;;;;4995345;28;20460;-82
2022/07/30 03:52:42;;;;;;;13.17;12.17;;;18.10;99.90;;;;;;4995162;28;20472;-82
2022/07/30 03:55:11;;;;;;;12.97;11.87;;;18.10;99.90;;;;;;4997288;28;20451;-82
2022/07/30 03:57:39;;;;;;;12.83;11.83;;;18.10;99.90;;;;;;4996123;28;20451;-82
2022/07/30 04:00:12;;;;;;;13.67;12.43;;;18.10;99.90;;;;;;4994250;28;20483;-82
2022/07/30 04:02:42;;;;;;;12.40;11.30;;;18.10;99.90;;;;;;5008607;28;20471;-82
2022/07/30 04:05:09;;;;;;;12.77;11.77;;;18.10;99.90;;;;;;5007615;28;20440;-82
2022/07/30 04:07:36;;;;;;;12.50;11.50;;;18.10;99.90;;;;;;5008395;28;20458;-82
2022/07/30 04:10:03;;;;;;;13.97;12.80;;;18.00;99.90;;;;;;4996221;28;20443;-82
2022/07/30 04:12:29;;;;;;;12.43;11.33;;;18.00;99.90;;;;;;4995956;28;20493;-82
2022/07/30 04:14:58;;;;;;;12.27;11.07;;;18.00;99.90;;;;;;4994381;28;20448;-82
2022/07/30 04:17:28;;;;;;;13.20;11.10;;;18.00;99.90;;;;;;4994194;28;20454;-83
2022/07/30 04:20:01;;;;;;;12.00;10.90;;;18.00;99.90;;;;;;4994325;28;20475;-82
2022/07/30 04:22:32;;;;;;;12.57;11.20;;;18.00;99.90;;;;;;4993510;28;20481;-82
2022/07/30 04:25:01;;;;;;;12.23;11.20;;;18.10;99.90;;;;;;4994814;28;20554;-82
2022/07/30 04:27:29;;;;;;;11.50;10.60;;;18.10;99.90;;;;;;4995784;28;20447;-83
2022/07/30 04:29:56;;;;;;;10.70;9.80;;;18.10;99.90;;;;;;4996032;28;20971;-82
2022/07/30 04:32:24;;;;;;;10.70;9.70;;;18.20;99.90;;;;;;4995696;28;20467;-82
2022/07/30 04:34:54;;;;;;;10.93;9.90;;;18.20;99.90;;;;;;4999497;28;20447;-82
2022/07/30 04:37:22;;;;;;;11.40;10.30;;;18.20;99.90;;;;;;4995307;28;20444;-82
2022/07/30 04:39:52;;;;;;;11.93;10.83;;;18.20;99.90;;;;;;4996497;28;21035;-83
2022/07/30 04:42:19;;;;;;;12.70;10.40;;;18.20;99.90;;;;;;4995240;28;20487;-82
2022/07/30 04:44:47;;;;;;;10.73;9.80;;;18.20;99.90;;;;;;5004813;28;20439;-82
2022/07/30 04:47:13;;;;;;;11.23;10.07;;;18.20;99.90;;;;;;4998953;28;20912;-82
2022/07/30 04:49:42;;;;;;;11.13;9.80;;;18.10;99.90;;;;;;4995073;28;20451;-82
2022/07/30 04:52:11;;;;;;;11.40;9.13;;;18.10;99.90;;;;;;4995367;28;20455;-82
2022/07/30 04:54:43;;;;;;;11.50;10.60;;;18.10;99.90;;;;;;5002819;28;20435;-82
2022/07/30 04:57:12;;;;;;;10.90;9.93;;;18.20;99.90;;;;;;5016210;28;20503;-82
2022/07/30 04:59:39;;;;;;;11.70;10.83;;;18.20;99.90;;;;;;5008026;28;20444;-83
2022/07/30 05:02:07;;;;;;;11.03;10.13;;;18.20;99.90;;;;;;5008459;28;20452;-82
2022/07/30 05:04:35;;;;;;;10.80;9.80;;;18.20;99.90;;;;;;4997389;28;20444;-83
2022/07/30 05:07:04;;;;;;;12.13;10.73;;;18.20;99.90;;;;;;4997700;28;20440;-82
2022/07/30 05:09:31;;;;;;;11.10;9.80;;;18.20;99.90;;;;;;4997007;28;20444;-82
2022/07/30 05:11:59;;;;;;;12.47;11.17;;;18.30;99.90;;;;;;4996613;28;20478;-83
2022/07/30 05:14:26;;;;;;;11.73;9.53;;;18.70;99.90;;;;;;4996386;28;20474;-82
2022/07/30 05:16:54;;;;;;;10.13;9.27;;;19.20;99.90;;;;;;5001216;28;20459;-82
2022/07/30 05:19:21;;;;;;;12.03;10.97;;;19.70;99.90;;;;;;4994999;28;20530;-82
2022/07/30 05:21:48;;;;;;;11.63;10.07;;;20.30;99.90;;;;;;5004329;28;20487;-83
2022/07/30 05:24:16;;;;;;;11.20;10.10;;;20.90;99.90;;;;;;5009452;28;21006;-83
2022/07/30 05:26:43;;;;;;;10.93;10.00;;;21.20;99.90;;;;;;4999348;28;20452;-83
2022/07/30 05:29:10;;;;;;;11.03;10.13;;;21.70;99.90;;;;;;4998342;28;20960;-83
2022/07/30 05:31:36;;;;;;;11.53;10.50;;;22.10;99.90;;;;;;4994649;28;20443;-83
2022/07/30 05:34:03;;;;;;;10.67;9.77;;;22.60;99.90;;;;;;4994650;28;20471;-83
2022/07/30 05:36:30;;;;;;;12.10;11.00;;;23.00;99.90;;;;;;4996759;28;20509;-84
2022/07/30 05:38:57;;;;;;;10.73;9.73;;;23.30;99.90;;;;;;4997354;28;20436;-83
2022/07/30 05:41:26;;;;;;;11.27;10.27;;;23.80;99.90;;;;;;4996894;28;20626;-82
2022/07/30 05:43:53;;;;;;;10.50;9.60;;;24.10;98.70;;;;;;4997480;28;20479;-83
2022/07/30 05:46:20;;;;;;;8.80;8.10;;;24.60;98.00;;;;;;4997240;28;20959;-83
2022/07/30 05:48:46;;;;;;;9.27;8.47;;;25.10;96.30;;;;;;4997618;28;20476;-83
2022/07/30 05:51:13;;;;;;;9.47;8.53;;;25.50;94.10;;;;;;4996939;28;20532;-83
2022/07/30 05:53:40;;;;;;;9.97;9.07;;;25.70;93.10;;;;;;4998260;28;20478;-83
2022/07/30 05:56:06;;;;;;;12.57;7.77;;;26.00;91.30;;;;;;5012222;28;20447;-84
2022/07/30 05:58:36;;;;;;;15.90;7.87;;;26.30;90.40;;;;;;5003670;28;20456;-83
2022/07/30 06:01:03;;;;;;;8.60;7.80;;;26.70;87.00;;;;;;4997641;28;20495;-83
2022/07/30 06:03:30;;;;;;;8.27;7.50;;;27.10;83.80;;;;;;4997535;28;20479;-84
2022/07/30 06:05:56;;;;;;;8.00;7.27;;;27.60;81.10;;;;;;4997580;28;20496;-82
2022/07/30 06:08:23;;;;;;;8.80;8.00;;;28.10;78.50;;;;;;5006513;28;20476;-83
2022/07/30 06:10:50;;;;;;;7.23;6.30;;;28.30;76.40;;;;;;5013231;28;20462;-84
2022/07/30 06:13:16;;;;;;;7.93;7.10;;;28.70;73.80;;;;;;5000045;28;20475;-83
2022/07/30 06:15:45;;;;;;;6.40;5.83;;;29.00;71.80;;;;;;4996289;28;20462;-83
2022/07/30 06:18:11;;;;;;;5.77;5.27;;;29.10;68.20;;;;;;4995916;28;20441;-83
2022/07/30 06:20:38;;;;;;;8.73;5.10;;;29.40;63.80;;;;;;4996143;28;20488;-83
2022/07/30 06:23:04;;;;;;;7.33;5.23;;;29.70;63.30;;;;;;4998628;28;20486;-83
2022/07/30 06:25:31;;;;;;;7.40;5.50;;;30.10;63.20;;;;;;4998634;28;20483;-83
2022/07/30 06:27:58;;;;;;;7.63;5.43;;;30.10;60.30;;;;;;5012400;28;20449;-83
2022/07/30 06:30:25;;;;;;;7.00;4.60;;;29.80;59.40;;;;;;4999866;28;20455;-83
2022/07/30 06:32:53;;;;;;;5.50;5.00;;;30.10;59.40;;;;;;4996959;28;20974;-83
2022/07/30 06:35:20;;;;;;;5.50;5.00;;;30.30;59.20;;;;;;4996155;28;20833;-83
2022/07/30 06:37:46;;;;;;;6.00;4.60;;;30.40;58.50;;;;;;5016545;28;20444;-83
2022/07/30 06:40:13;;;;;;;5.40;4.60;;;30.80;56.30;;;;;;5003155;28;20449;-84
2022/07/30 06:42:40;;;;;;;5.20;4.80;;;31.00;55.70;;;;;;4995490;28;20989;-83
2022/07/30 06:45:08;;;;;;;5.97;5.47;;;31.50;55.60;;;;;;4994205;28;20455;-83
2022/07/30 06:47:35;;;;;;;4.83;4.30;;;31.30;53.50;;;;;;4996772;28;20500;-83
2022/07/30 06:50:03;;;;;;;5.17;4.67;;;31.20;53.80;;;;;;4997643;28;20950;-83
2022/07/30 06:52:30;;;;;;;4.77;4.30;;;31.60;53.30;;;;;;4995784;28;20483;-83
2022/07/30 06:54:57;;;;;;;5.50;4.50;;;32.00;51.90;;;;;;4999750;28;20447;-84
2022/07/30 06:57:23;;;;;;;4.00;3.60;;;32.40;50.40;;;;;;5006035;28;20454;-84
2022/07/30 06:59:50;;;;;;;5.10;4.70;;;32.70;50.10;;;;;;5003510;28;20462;-83
2022/07/30 07:02:17;;;;;;;5.90;4.80;;;33.10;48.80;;;;;;4995122;28;20572;-83
2022/07/30 07:04:43;;;;;;;4.90;4.40;;;33.40;48.40;;;;;;4995650;28;20826;-83
2022/07/30 07:07:11;;;;;;;5.77;4.70;;;33.30;48.30;;;;;;4999877;28;20449;-83
2022/07/30 07:09:38;;;;;;;6.57;5.27;;;33.30;48.20;;;;;;5003482;28;20523;-83
2022/07/30 07:12:06;;;;;;;5.73;5.17;;;33.60;47.30;;;;;;4997891;28;20449;-84
2022/07/30 07:14:32;;;;;;;7.53;5.13;;;33.50;47.00;;;;;;4998591;28;20454;-83
2022/07/30 07:16:59;;;;;;;5.13;4.47;;;33.10;47.90;;;;;;4995028;28;20452;-83
2022/07/30 07:19:26;;;;;;;5.60;5.10;;;33.30;47.80;;;;;;5016525;28;20429;-83
2022/07/30 07:21:53;;;;;;;6.87;4.83;;;33.70;46.80;;;;;;5012798;28;20492;-83
2022/07/30 07:24:21;;;;;;;11.77;7.17;;;34.50;45.70;;;;;;4996952;28;20485;-83
2022/07/30 07:26:47;;;;;;;7.93;5.53;;;34.60;44.80;;;;;;4997347;28;20450;-84
2022/07/30 07:29:14;;;;;;;6.27;5.50;;;35.10;44.10;;;;;;4996908;28;20449;-83
2022/07/30 07:31:41;;;;;;;7.80;6.10;;;34.90;43.30;;;;;;4996842;28;20456;-84
2022/07/30 07:34:07;;;;;;;6.30;5.70;;;34.90;43.10;;;;;;4997725;28;20462;-83
2022/07/30 07:36:35;;;;;;;6.17;5.20;;;34.90;43.40;;;;;;4999369;28;20489;-83
2022/07/30 07:39:01;;;;;;;7.60;5.83;;;35.50;42.80;;;;;;5015161;28;20441;-84
2022/07/30 07:41:29;;;;;;;9.30;4.80;;;36.00;41.70;;;;;;5009559;28;20486;-83
2022/07/30 07:43:56;;;;;;;5.50;5.00;;;35.80;41.80;;;;;;4996482;28;20897;-84
2022/07/30 07:46:23;;;;;;;5.57;4.67;;;36.50;41.30;;;;;;4995234;28;20463;-83
2022/07/30 07:48:49;;;;;;;4.60;4.20;;;36.30;40.50;;;;;;4995299;28;20980;-83
2022/07/30 07:51:16;;;;;;;6.93;4.80;;;36.70;40.10;;;;;;4994295;28;20501;-83
2022/07/30 07:53:43;;;;;;;7.17;4.40;;;36.70;40.00;;;;;;4994879;28;20467;-83
2022/07/30 07:56:09;;;;;;;6.53;4.10;;;36.60;39.50;;;;;;5005286;28;20434;-83
2022/07/30 07:58:37;;;;;;;9.00;4.33;;;36.70;38.90;;;;;;5012980;28;20449;-83
2022/07/30 08:01:04;;;;;;;4.33;3.63;;;36.50;38.70;;;;;;4999630;28;20481;-84
2022/07/30 08:03:31;;;;;;;5.13;4.63;;;37.20;38.50;;;;;;4996049;28;20478;-85
2022/07/30 08:05:57;;;;;;;4.80;3.93;;;37.30;37.50;;;;;;4995920;28;20962;-84
2022/07/30 08:08:24;;;;;;;4.30;4.00;;;37.40;37.50;;;;;;4996161;28;20459;-84
2022/07/30 08:10:51;;;;;;;5.80;3.47;;;37.90;36.70;;;;;;4995438;28;20476;-84
2022/07/30 08:13:17;;;;;;;7.73;4.00;;;37.60;37.00;;;;;;4995542;28;20477;-84
2022/07/30 08:15:45;;;;;;;4.40;3.40;;;37.60;36.70;;;;;;4996104;28;20445;-84
2022/07/30 08:18:12;;;;;;;4.27;3.40;;;37.70;36.50;;;;;;4994904;28;20447;-84
2022/07/30 08:20:39;;;;;;;3.77;3.27;;;37.80;36.10;;;;;;4995785;28;20549;-84
2022/07/30 08:23:06;;;;;;;4.37;3.97;;;38.10;35.50;;;;;;4997812;28;20478;-83
2022/07/30 08:25:33;;;;;;;3.70;3.40;;;38.10;34.60;;;;;;5008000;28;20800;-90
2022/07/30 08:28:01;;;;;;;4.60;4.20;;;38.70;34.50;;;;;;5006649;28;20464;-88
2022/07/30 08:30:28;;;;;;;5.30;3.80;;;38.70;34.50;;;;;;5002670;28;20440;-88
2022/07/30 08:32:56;;;;;;;3.73;3.20;;;38.30;34.70;;;;;;5017507;28;20462;-88
2022/07/30 08:35:23;;;;;;;3.73;3.43;;;37.80;35.00;;;;;;5018852;28;20451;-89
2022/07/30 08:37:50;;;;;;;4.30;3.50;;;38.30;34.90;;;;;;5010148;28;20447;-89
2022/07/30 08:40:18;;;;;;;6.33;3.73;;;38.30;34.80;;;;;;4992313;28;20526;-88
2022/07/30 08:42:45;;;;;;;3.87;3.50;;;38.80;34.10;;;;;;4987933;28;20458;-90
2022/07/30 08:45:13;;;;;;;3.60;3.30;;;38.70;33.30;;;;;;4984284;28;20929;-89
2022/07/30 08:47:42;;;;;;;5.70;3.63;;;38.90;33.50;;;;;;4984595;28;20964;-89
2022/07/30 08:50:10;;;;;;;4.77;3.77;;;38.60;33.10;;;;;;4982899;28;20446;-88
2022/07/30 08:52:38;;;;;;;3.40;3.10;;;38.90;33.00;;;;;;4985680;28;20487;-89
2022/07/30 08:55:06;;;;;;;4.70;3.50;;;39.70;31.90;;;;;;5001791;28;20447;-90
2022/07/30 08:57:34;;;;;;;4.30;3.23;;;39.10;31.90;;;;;;4989497;28;20444;-90
2022/07/30 09:00:01;;;;;;;4.40;2.83;;;39.70;32.20;;;;;;4993631;28;20449;-90
2022/07/30 09:02:30;;;;;;;3.93;3.53;;;40.20;31.10;;;;;;4991249;28;20460;-90
2022/07/30 09:04:57;;;;;;;6.50;4.00;;;40.60;31.00;;;;;;4992659;28;20914;-89
2022/07/30 09:07:26;;;;;;;5.20;3.10;;;40.40;30.00;;;;;;4994890;28;20464;-89
2022/07/30 09:09:52;;;;;;;5.63;3.50;;;38.80;31.70;;;;;;4993420;28;20439;-90
2022/07/30 09:12:35;;;;;;;5.33;3.93;;;37.50;32.70;;;;;;4992172;28;20634;-89
2022/07/30 09:15:04;;;;;;;3.90;3.17;;;36.90;33.60;;;;;;5001534;28;20434;-88
2022/07/30 09:17:45;;;;;;;4.60;3.57;;;37.80;32.90;;;;;;5008334;28;20487;-90
2022/07/30 09:20:12;;;;;;;3.83;3.40;;;38.70;31.80;;;;;;5010385;28;20448;-90
2022/07/30 09:22:45;;;;;;;5.43;3.63;;;39.30;31.20;;;;;;4992545;28;20467;-90
2022/07/30 09:25:13;;;;;;;3.60;3.30;;;40.00;30.10;;;;;;4992793;28;20451;-90
2022/07/30 09:27:46;;;;;;;5.83;3.50;;;40.40;30.00;;;;;;4990582;28;20447;-89
2022/07/30 09:30:14;;;;;;;4.43;3.53;;;40.20;29.50;;;;;;4990113;28;20436;-90
2022/07/30 09:32:48;;;;;;;3.80;3.40;;;40.00;29.70;;;;;;4990675;28;20486;-89
2022/07/30 09:35:16;;;;;;;3.53;3.10;;;40.50;29.30;;;;;;4991298;28;20447;-90
2022/07/30 09:37:45;;;;;;;4.30;3.10;;;41.10;29.20;;;;;;4993394;28;20531;-90
2022/07/30 09:40:13;;;;;;;3.83;3.07;;;41.50;28.90;;;;;;4992258;28;20479;-90
2022/07/30 09:42:40;;;;;;;2.80;2.60;;;41.90;28.00;;;;;;4991988;28;20463;-90
2022/07/30 09:45:09;;;;;;;4.40;3.20;;;41.80;28.20;;;;;;4990485;28;20960;-90
2022/07/30 09:47:37;;;;;;;3.57;3.37;;;41.40;28.20;;;;;;5011186;28;20426;-90
2022/07/30 09:50:06;;;;;;;3.50;3.20;;;39.90;29.20;;;;;;5007242;28;20436;-89
2022/07/30 09:52:33;;;;;;;7.10;2.93;;;38.10;30.80;;;;;;5003100;28;20515;-89
2022/07/30 09:55:08;;;;;;;4.70;3.03;;;38.40;30.80;;;;;;5011306;28;20443;-89
2022/07/30 09:57:36;;;;;;;3.80;2.67;;;39.80;29.70;;;;;;5007794;28;20439;-89
2022/07/30 10:00:17;;;;;;;4.17;2.90;;;40.80;28.90;;;;;;5000913;28;20438;-89
2022/07/30 10:02:43;;;;;;;3.47;2.57;;;41.40;28.20;;;;;;4998232;28;20463;-89
2022/07/30 10:05:12;;;;;;;3.30;2.90;;;42.30;27.30;;;;;;4997900;28;20440;-89
2022/07/30 10:07:39;;;;;;;3.13;2.47;;;42.20;26.40;;;;;;4993907;28;20462;-90
2022/07/30 10:10:08;;;;;;;2.73;2.20;;;41.70;27.00;;;;;;4994142;28;20875;-89
2022/07/30 10:12:36;;;;;;;4.27;2.73;;;41.70;27.00;;;;;;4993766;28;20875;-89
2022/07/30 10:15:04;;;;;;;3.07;2.30;;;42.40;26.50;;;;;;4992663;28;20440;-89
2022/07/30 10:17:33;;;;;;;3.73;2.90;;;41.10;27.10;;;;;;4995348;28;20448;-89
2022/07/30 10:20:00;;;;;;;4.20;2.70;;;41.50;27.50;;;;;;4993595;28;20475;-89
2022/07/30 10:22:27;;;;;;;3.57;2.80;;;42.40;27.10;;;;;;4996553;28;20474;-90
2022/07/30 10:24:54;;;;;;;4.17;2.77;;;41.20;26.90;;;;;;4996070;28;20436;-89
2022/07/30 10:27:23;;;;;;;4.10;2.30;;;40.10;27.90;;;;;;4996278;28;20479;-88
2022/07/30 10:29:51;;;;;;;2.33;2.13;;;39.00;28.40;;;;;;4996802;28;20463;-89
2022/07/30 10:32:18;;;;;;;6.20;2.63;;;39.20;28.70;;;;;;4997017;28;20473;-89
2022/07/30 10:34:45;;;;;;;2.97;2.40;;;40.00;27.90;;;;;;5006989;28;20431;-88
2022/07/30 10:37:15;;;;;;;3.17;2.87;;;39.00;28.50;;;;;;5016158;28;20474;-89
2022/07/30 10:39:50;;;;;;;4.47;3.20;;;38.60;29.10;;;;;;5010259;28;20450;-89
2022/07/30 10:42:27;;;;;;;8.13;2.80;;;37.20;30.10;;;;;;4998506;28;20458;-89
2022/07/30 10:45:08;;;;;;;5.00;3.17;;;35.90;31.70;;;;;;5004427;28;20443;-89
2022/07/30 10:47:37;;;;;;;4.47;2.73;;;35.10;33.10;;;;;;5003279;28;20854;-89
2022/07/30 10:50:10;;;;;;;6.43;2.77;;;36.50;33.00;;;;;;5007956;28;20446;-90
2022/07/30 10:52:52;;;;;;;3.30;2.40;;;38.30;30.00;;;;;;5004720;28;20533;-90
2022/07/30 10:55:20;;;;;;;3.33;3.00;;;40.10;29.10;;;;;;4998647;28;20443;-89
2022/07/30 10:58:04;;;;;;;3.30;3.00;;;41.90;27.20;;;;;;5001704;28;20449;-84
2022/07/30 11:00:32;;;;;;;4.13;2.43;;;41.50;27.00;;;;;;5016608;28;20443;-86
2022/07/30 11:03:17;;;;;;;4.17;3.50;;;42.30;26.80;;;;;;5006782;28;20466;-90
2022/07/30 11:05:46;;;;;;;3.70;2.27;;;43.40;26.00;;;;;;4994852;28;20933;-89
2022/07/30 11:08:34;;;;;;;3.50;2.30;;;43.70;25.30;;;;;;4994987;28;20502;-88
2022/07/30 11:11:01;;;;;;;4.03;2.43;;;41.60;26.00;;;;;;5006200;28;20436;-89
2022/07/30 11:13:55;;;;;;;3.97;2.97;;;39.30;27.50;;;;;;5006223;28;20479;-87
2022/07/30 11:16:23;;;;;;;3.63;2.53;;;39.20;28.70;;;;;;4994325;28;20504;-90
2022/07/30 11:19:08;;;;;;;5.33;2.57;;;38.80;28.70;;;;;;4993176;28;20450;-89
2022/07/30 11:21:35;;;;;;;5.43;3.23;;;38.60;29.10;;;;;;5013801;28;20450;-90
2022/07/30 11:24:02;;;;;;;3.17;2.70;;;39.30;29.10;;;;;;5017242;28;20478;-90
2022/07/30 11:26:51;;;;;;;2.70;2.20;;;39.70;28.40;;;;;;5004078;28;20477;-89
2022/07/30 11:29:37;;;;;;;25.90;19.47;;;41.10;27.20;;;;;;4998773;28;20448;-88
2022/07/30 11:32:23;;;;;;;4.33;2.73;;;40.90;27.10;;;;;;4996788;28;20482;-88
2022/07/30 11:34:50;;;;;;;3.60;2.33;;;42.20;26.40;;;;;;4994303;28;20817;-89
2022/07/30 11:37:17;;;;;;;3.60;2.17;;;43.20;25.50;;;;;;4994276;28;20457;-90
2022/07/30 11:40:12;;;;;;;3.93;2.33;;;43.90;24.60;;;;;;4991430;28;20831;-89
2022/07/30 11:42:42;;;;;;;3.97;2.30;;;44.00;23.90;;;;;;5001069;28;20444;-90
2022/07/30 11:45:29;;;;;;;4.07;2.53;;;42.50;24.40;;;;;;5011822;28;20442;-90
2022/07/30 11:47:59;;;;;;;10.10;3.23;;;42.00;25.40;;;;;;5001702;28;20439;-90
2022/07/30 11:50:29;;;;;;;3.20;1.90;;;43.10;25.00;;;;;;4999176;28;20432;-90
2022/07/30 11:53:01;;;;;;;4.33;2.23;;;44.10;23.70;;;;;;4998846;28;20476;-89
2022/07/30 11:55:31;;;;;;;2.60;2.07;;;44.70;23.30;;;;;;5000166;28;20455;-89
2022/07/30 11:57:59;;;;;;;4.10;2.40;;;45.30;22.90;;;;;;4998877;28;20444;-88
2022/07/30 12:00:34;;;;;;;2.37;2.10;;;44.70;22.80;;;;;;5002878;28;20451;-89
2022/07/30 12:03:06;;;;;;;2.87;2.03;;;44.70;22.80;;;;;;4993389;28;20555;-89
2022/07/30 12:05:33;;;;;;;2.97;2.67;;;45.20;22.40;;;;;;4995552;28;21158;-89
2022/07/30 12:08:00;;;;;;;4.27;2.30;;;45.70;22.30;;;;;;4997541;28;20484;-88
2022/07/30 12:10:30;;;;;;;5.53;2.20;;;45.10;22.70;;;;;;4996346;28;20596;-90
2022/07/30 12:13:08;;;;;;;3.50;2.17;;;45.30;22.70;;;;;;4997506;28;20480;-89
2022/07/30 12:15:38;;;;;;;2.77;2.57;;;45.40;22.40;;;;;;4995086;28;20872;-89
2022/07/30 12:18:06;;;;;;;2.30;2.10;;;45.40;22.30;;;;;;4993955;28;20450;-89
2022/07/30 12:20:33;;;;;;;2.60;2.33;;;44.90;22.50;;;;;;4999310;28;20943;-89
2022/07/30 12:23:01;;;;;;;3.37;2.27;;;45.40;22.50;;;;;;5000206;28;20975;-89
2022/07/30 12:25:28;;;;;;;2.50;2.20;;;45.80;22.00;;;;;;4997528;28;21011;-89
2022/07/30 12:27:55;;;;;;;3.00;2.40;;;45.30;22.00;;;;;;4992565;28;20451;-89
2022/07/30 12:30:23;;;;;;;5.40;2.37;;;44.90;22.40;;;;;;4993750;28;20467;-90
2022/07/30 12:32:51;;;;;;;1.80;1.70;;;45.20;22.40;;;;;;4994092;28;20853;-89
2022/07/30 12:35:18;;;;;;;2.83;2.50;;;45.10;22.20;;;;;;5008711;28;20439;-89
2022/07/30 12:38:03;;;;;;;2.50;1.80;;;44.90;22.70;;;;;;5016708;28;20419;-88
2022/07/30 12:40:30;;;;;;;2.87;2.30;;;45.80;21.90;;;;;;5015285;28;20466;-89
2022/07/30 12:42:57;;;;;;;2.43;2.17;;;46.10;21.60;;;;;;5015306;28;20444;-89
2022/07/30 12:45:29;;;;;;;4.80;2.70;;;45.80;21.70;;;;;;5012120;28;20448;-88
2022/07/30 12:47:57;;;;;;;4.27;3.87;;;46.10;21.70;;;;;;5009617;28;20485;-89
2022/07/30 12:50:25;;;;;;;3.30;2.27;;;45.80;21.60;;;;;;5010668;28;20444;-90
2022/07/30 12:52:53;;;;;;;3.60;2.60;;;45.90;21.30;;;;;;4998536;28;20493;-90